Terminal Aerodrome Forecast
Issued by NWS Melbourne, FL

Home | Current Version | Previous Version | Text Only | Print | Product List | Glossary On
Versions: 1 2 3 4 5 6 7 8 9 10 11 12 13 14 15 16 17
000
FTUS42 KMLB 231700
TAFVRB
TAF
KVRB 231722Z 2318/2418 17008KT 4SM TSRA BKN020CB BKN040
      TEMPO 2318/2319 VRB20KT 2SM TSRA BKN015CB OVC035
     FM232000 20006KT P6SM VCTS SCT025CB BKN040
     FM240200 16003KT P6SM VCSH SCT040 BKN140
     FM240400 VRB02KT P6SM FEW035 BKN120
      TEMPO 2409/2412 5SM BR FEW005=

USA.gov is the U.S. government's official web portal to all federal, state and local government web resources and services.